Time;durP1;ratioP1;P1;durP2;ratioP2;P2;SDS_P1;SDS_P2;PMS_P1;PMS_P2;Temp;Humidity;BMP_temperature;BMP_pressure;BME280_temperature;BME280_humidity;BME280_pressure;Samples;Min_cycle;Max_cycle;Signal;HPM_P1;HPM_P2
2021/08/27 00:02:09;;;;;;;13.20;2.33;;;14.50;99.90;;;;;;5086071;27;20050;-88
2021/08/27 00:04:35;;;;;;;16.60;2.60;;;14.50;99.90;;;;;;5048145;27;20069;-89
2021/08/27 00:07:01;;;;;;;12.57;2.33;;;14.50;99.90;;;;;;5064215;28;20163;-88
2021/08/27 00:09:26;;;;;;;13.32;2.28;;;14.50;99.90;;;;;;5062227;27;20051;-88
2021/08/27 00:11:56;;;;;;;16.35;1.90;;;14.50;99.90;;;;;;5075122;28;20198;-88
2021/08/27 00:14:22;;;;;;;11.20;2.38;;;14.50;99.90;;;;;;5074784;28;20552;-88
2021/08/27 00:16:48;;;;;;;17.98;2.50;;;14.50;99.90;;;;;;5069308;27;20038;-85
2021/08/27 00:19:14;;;;;;;8.10;2.03;;;14.50;99.90;;;;;;5056622;27;20043;-87
2021/08/27 00:21:39;;;;;;;13.38;2.00;;;14.50;99.90;;;;;;5072943;28;20120;-86
2021/08/27 00:24:06;;;;;;;10.90;2.38;;;14.50;99.90;;;;;;5055432;28;20031;-86
2021/08/27 00:26:33;;;;;;;13.68;2.20;;;14.50;99.90;;;;;;5044599;27;20038;-86
2021/08/27 00:28:59;;;;;;;8.88;1.90;;;14.50;99.90;;;;;;5076930;28;20567;-87
2021/08/27 00:31:25;;;;;;;12.63;2.38;;;14.50;99.90;;;;;;5057681;28;20047;-86
2021/08/27 00:33:51;;;;;;;10.70;2.22;;;14.50;99.90;;;;;;5044760;28;20068;-88
2021/08/27 00:36:17;;;;;;;13.30;2.33;;;14.40;99.90;;;;;;5026100;28;20072;-86
2021/08/27 00:38:42;;;;;;;18.48;3.03;;;14.40;99.90;;;;;;5010242;28;20304;-86
2021/08/27 00:41:08;;;;;;;10.40;2.20;;;14.40;99.90;;;;;;5016103;28;20117;-84
2021/08/27 00:43:34;;;;;;;14.93;2.58;;;14.40;99.90;;;;;;5015670;28;20037;-86
2021/08/27 00:46:00;;;;;;;9.20;2.50;;;14.40;99.90;;;;;;5045684;28;20052;-87
2021/08/27 00:48:26;;;;;;;10.52;2.72;;;14.30;99.90;;;;;;4995508;28;20056;-86
2021/08/27 00:50:52;;;;;;;9.00;2.30;;;14.30;99.90;;;;;;5013320;28;20044;-87
2021/08/27 00:53:18;;;;;;;12.35;2.40;;;14.30;99.90;;;;;;5016771;28;20045;-87
2021/08/27 00:59:05;;;;;;;10.38;2.00;;;14.30;99.90;;;;;;5045527;28;20052;-88
2021/08/27 01:01:59;;;;;;;11.38;2.30;;;14.20;99.90;;;;;;5038926;28;20462;-90
2021/08/27 01:04:25;;;;;;;8.88;1.92;;;14.20;99.90;;;;;;5023162;28;20049;-88
2021/08/27 01:07:17;;;;;;;7.03;2.03;;;14.20;99.90;;;;;;5027019;28;20047;-87
2021/08/27 01:10:04;;;;;;;12.60;2.03;;;14.20;99.90;;;;;;5002344;28;20050;-88
2021/08/27 01:12:53;;;;;;;9.50;2.28;;;14.20;99.90;;;;;;5030575;28;20037;-88
2021/08/27 01:15:48;;;;;;;13.82;2.38;;;14.20;99.90;;;;;;5009549;28;20284;-88
2021/08/27 01:18:45;;;;;;;12.10;2.55;;;14.20;99.90;;;;;;5026138;28;20487;-88
2021/08/27 01:21:44;;;;;;;10.63;2.00;;;14.20;99.90;;;;;;5028020;28;20481;-88
2021/08/27 01:24:12;;;;;;;11.85;2.47;;;14.20;99.90;;;;;;5004723;28;20037;-88
2021/08/27 01:26:43;;;;;;;11.18;2.45;;;14.20;99.90;;;;;;5026991;28;20095;-87
2021/08/27 01:29:10;;;;;;;10.70;2.10;;;14.20;99.90;;;;;;5025759;28;20037;-86
2021/08/27 01:32:01;;;;;;;13.27;1.90;;;14.20;99.90;;;;;;5013982;28;20038;-87
2021/08/27 01:34:38;;;;;;;7.43;2.17;;;14.20;99.90;;;;;;5020598;28;20741;-87
2021/08/27 01:37:09;;;;;;;8.00;2.45;;;14.20;99.90;;;;;;5022919;28;20037;-86
2021/08/27 01:39:42;;;;;;;11.93;3.33;;;14.10;99.90;;;;;;5007923;28;20030;-87
2021/08/27 01:42:11;;;;;;;10.98;2.67;;;14.20;99.90;;;;;;5007428;28;20033;-85
2021/08/27 01:44:39;;;;;;;12.73;3.28;;;14.10;99.90;;;;;;5016338;28;20124;-86
2021/08/27 01:47:07;;;;;;;11.60;3.13;;;14.10;99.90;;;;;;4996560;28;20250;-87
2021/08/27 01:49:33;;;;;;;15.35;2.75;;;14.20;99.90;;;;;;4999380;28;20231;-86
2021/08/27 01:52:06;;;;;;;13.75;3.05;;;14.10;99.90;;;;;;4997966;28;20628;-85
2021/08/27 01:54:33;;;;;;;12.30;3.42;;;14.10;99.90;;;;;;5015523;28;20108;-85
2021/08/27 01:57:00;;;;;;;8.55;3.03;;;14.10;99.90;;;;;;4981974;28;20040;-85
2021/08/27 01:59:33;;;;;;;13.93;2.83;;;14.10;99.90;;;;;;5000403;28;20040;-86
2021/08/27 02:01:59;;;;;;;;;;;14.10;99.90;;;;;;4983184;28;20037;-86
2021/08/27 02:04:26;;;;;;;9.88;2.80;;;14.10;99.90;;;;;;5014813;28;19925;-84
2021/08/27 02:06:52;;;;;;;25.90;4.28;;;14.00;99.90;;;;;;5015513;28;20404;-83
2021/08/27 02:09:25;;;;;;;15.38;3.47;;;14.00;99.90;;;;;;5000379;28;20029;-86
2021/08/27 02:11:52;;;;;;;12.88;3.15;;;14.00;99.90;;;;;;5014522;28;20037;-85
2021/08/27 02:14:18;;;;;;;15.20;3.00;;;14.00;99.90;;;;;;5020119;28;20045;-85
2021/08/27 02:16:44;;;;;;;11.82;3.50;;;14.00;99.90;;;;;;5000846;28;20044;-85
2021/08/27 02:19:11;;;;;;;14.93;3.72;;;14.00;99.90;;;;;;5003634;28;20034;-85
2021/08/27 02:21:44;;;;;;;10.55;2.85;;;14.00;99.90;;;;;;5004146;28;20499;-86
2021/08/27 02:24:14;;;;;;;11.68;3.30;;;13.90;99.90;;;;;;5016623;28;20041;-86
2021/08/27 02:26:43;;;;;;;12.85;2.97;;;14.00;99.90;;;;;;4985549;28;20181;-85
2021/08/27 02:29:11;;;;;;;14.07;3.17;;;13.90;99.90;;;;;;4999019;28;20275;-85
2021/08/27 02:31:38;;;;;;;9.60;2.60;;;13.90;99.90;;;;;;5016297;28;20045;-86
2021/08/27 02:34:06;;;;;;;17.05;3.80;;;13.90;99.90;;;;;;4995638;28;20280;-85
2021/08/27 02:36:31;;;;;;;15.32;3.58;;;13.90;99.90;;;;;;4993680;28;20095;-85
2021/08/27 02:38:58;;;;;;;13.18;3.08;;;13.90;99.90;;;;;;5032272;28;20033;-85
2021/08/27 02:41:24;;;;;;;17.08;3.47;;;13.90;99.90;;;;;;4996572;28;20029;-84
2021/08/27 02:43:50;;;;;;;14.18;3.00;;;13.80;99.90;;;;;;5002671;28;20037;-85
2021/08/27 02:46:16;;;;;;;15.05;3.53;;;13.90;99.90;;;;;;4998316;28;20543;-84
2021/08/27 02:48:42;;;;;;;10.27;3.97;;;13.80;99.90;;;;;;4989878;28;20129;-86
2021/08/27 02:51:07;;;;;;;10.57;3.03;;;13.80;99.90;;;;;;4997841;28;20041;-84
2021/08/27 02:53:37;;;;;;;17.13;3.28;;;13.80;99.90;;;;;;4984457;28;20492;-85
2021/08/27 02:56:05;;;;;;;12.82;3.60;;;13.80;99.90;;;;;;5000381;28;20048;-84
2021/08/27 02:58:35;;;;;;;12.45;2.78;;;13.80;99.90;;;;;;4997176;28;20251;-85
2021/08/27 03:01:18;;;;;;;14.40;3.05;;;13.80;99.90;;;;;;4998836;28;20033;-85
2021/08/27 03:04:02;;;;;;;13.13;2.90;;;13.80;99.90;;;;;;4984097;28;20451;-85
2021/08/27 03:06:33;;;;;;;11.52;3.05;;;13.80;99.90;;;;;;5008919;28;20053;-85
2021/08/27 03:09:06;;;;;;;15.10;3.80;;;13.80;99.90;;;;;;4997341;28;21985;-86
2021/08/27 03:11:39;;;;;;;15.00;2.90;;;13.80;99.90;;;;;;5015759;28;20037;-84
2021/08/27 03:14:28;;;;;;;18.45;3.25;;;13.80;99.90;;;;;;5001401;28;20504;-84
2021/08/27 03:16:58;;;;;;;11.73;2.85;;;13.80;99.90;;;;;;5009718;28;20591;-84
2021/08/27 03:19:39;;;;;;;14.48;3.40;;;13.80;99.90;;;;;;5028737;28;20041;-84
2021/08/27 03:22:10;;;;;;;13.88;3.13;;;13.80;99.90;;;;;;4998692;28;20068;-85
2021/08/27 03:24:41;;;;;;;12.25;3.38;;;13.80;99.90;;;;;;5033158;28;20517;-84
2021/08/27 03:27:19;;;;;;;12.15;3.05;;;13.80;99.90;;;;;;4998140;28;20517;-82
2021/08/27 03:29:50;;;;;;;13.35;3.00;;;13.80;99.90;;;;;;5016318;28;20527;-85
2021/08/27 03:32:19;;;;;;;8.95;2.42;;;13.80;99.90;;;;;;4998213;28;20366;-85
2021/08/27 03:34:45;;;;;;;13.35;2.97;;;13.80;99.90;;;;;;4981929;28;20079;-85
2021/08/27 03:37:13;;;;;;;10.25;2.35;;;13.80;99.90;;;;;;4992381;28;20071;-83
2021/08/27 03:39:40;;;;;;;10.68;2.72;;;13.90;99.90;;;;;;5013030;28;20040;-85
2021/08/27 03:42:07;;;;;;;17.33;3.42;;;13.90;99.90;;;;;;5017161;28;20040;-83
2021/08/27 03:44:35;;;;;;;10.75;2.75;;;13.90;99.90;;;;;;4985715;28;20046;-84
2021/08/27 03:47:02;;;;;;;14.02;3.20;;;13.90;99.90;;;;;;5034669;28;20045;-84
2021/08/27 03:49:28;;;;;;;23.02;3.47;;;13.90;99.90;;;;;;5012438;28;20088;-83
2021/08/27 03:51:55;;;;;;;12.57;2.58;;;13.90;99.90;;;;;;4992097;28;20044;-85
2021/08/27 03:54:21;;;;;;;6.65;2.25;;;13.90;99.90;;;;;;5016690;28;20045;-85
2021/08/27 03:56:48;;;;;;;13.45;2.58;;;13.90;99.90;;;;;;4997754;28;20041;-87
2021/08/27 03:59:18;;;;;;;10.43;2.28;;;13.90;99.90;;;;;;5006999;28;20034;-85
2021/08/27 04:01:45;;;;;;;12.75;2.80;;;13.90;99.90;;;;;;4983414;28;20080;-86
2021/08/27 04:04:19;;;;;;;11.23;2.45;;;13.90;99.90;;;;;;4997959;28;20712;-85
2021/08/27 04:07:01;;;;;;;8.98;2.20;;;13.80;99.90;;;;;;5004085;28;20124;-86
2021/08/27 04:09:30;;;;;;;12.75;2.95;;;13.80;99.90;;;;;;4983882;28;20057;-85
2021/08/27 04:11:57;;;;;;;14.80;2.80;;;13.80;99.90;;;;;;5031779;28;20044;-85
2021/08/27 04:14:23;;;;;;;17.30;2.33;;;13.90;99.90;;;;;;5002386;28;20312;-84
2021/08/27 04:16:49;;;;;;;10.43;2.47;;;13.80;99.90;;;;;;5031808;28;20045;-86
2021/08/27 04:19:15;;;;;;;11.45;2.50;;;13.80;99.90;;;;;;4995608;28;20037;-86
2021/08/27 04:21:42;;;;;;;13.77;2.60;;;13.80;99.90;;;;;;5029596;28;20037;-85
2021/08/27 04:24:08;;;;;;;12.00;2.50;;;13.80;99.90;;;;;;4998836;28;20037;-85
2021/08/27 04:26:35;;;;;;;13.07;2.45;;;13.80;99.90;;;;;;4994048;28;20037;-87
2021/08/27 04:29:01;;;;;;;15.25;3.00;;;13.90;99.90;;;;;;5004511;28;20502;-86
2021/08/27 04:31:28;;;;;;;14.73;2.40;;;13.80;99.90;;;;;;5005667;28;20832;-86
2021/08/27 04:33:54;;;;;;;7.35;2.55;;;13.90;99.90;;;;;;4987013;28;20068;-85
2021/08/27 04:36:20;;;;;;;16.63;2.90;;;13.80;99.90;;;;;;5030419;28;20497;-85
2021/08/27 04:38:45;;;;;;;20.40;2.70;;;13.80;99.90;;;;;;4988059;28;20039;-87
2021/08/27 04:41:12;;;;;;;12.07;2.40;;;13.80;99.90;;;;;;5021442;28;20514;-87
2021/08/27 04:43:38;;;;;;;14.98;3.10;;;13.80;99.90;;;;;;4994455;28;20439;-86
2021/08/27 04:46:04;;;;;;;15.80;3.35;;;13.80;99.90;;;;;;5009475;28;20128;-87
2021/08/27 04:48:30;;;;;;;12.52;2.20;;;13.80;99.90;;;;;;5013390;28;20044;-87
2021/08/27 04:50:55;;;;;;;12.07;3.00;;;13.80;99.90;;;;;;4992841;28;20045;-85
2021/08/27 04:53:21;;;;;;;14.23;2.88;;;13.80;99.90;;;;;;4987219;28;20149;-87
2021/08/27 04:55:47;;;;;;;13.70;3.30;;;13.80;99.90;;;;;;4999122;28;20075;-86
2021/08/27 04:58:13;;;;;;;15.98;2.75;;;13.80;99.90;;;;;;4999322;28;20154;-86
2021/08/27 05:00:38;;;;;;;15.00;3.33;;;13.80;99.90;;;;;;5002969;28;20048;-86
2021/08/27 05:03:04;;;;;;;12.45;2.75;;;13.80;99.90;;;;;;5002319;28;20040;-85
2021/08/27 05:05:30;;;;;;;11.63;2.72;;;13.80;99.90;;;;;;4983343;28;20038;-85
2021/08/27 05:07:56;;;;;;;14.38;2.97;;;13.90;99.90;;;;;;4987776;28;20503;-85
2021/08/27 05:10:22;;;;;;;17.10;3.70;;;13.80;99.90;;;;;;5002208;28;20048;-85
2021/08/27 05:12:47;;;;;;;15.80;2.92;;;13.80;99.90;;;;;;4989462;28;20076;-87
2021/08/27 05:15:13;;;;;;;11.95;2.60;;;13.90;99.90;;;;;;4997917;28;20487;-85
2021/08/27 05:17:40;;;;;;;16.63;3.50;;;13.90;99.90;;;;;;4975617;28;20037;-86
2021/08/27 05:20:07;;;;;;;15.13;3.58;;;13.90;99.90;;;;;;4984189;28;20038;-86
2021/08/27 05:22:33;;;;;;;14.43;2.80;;;13.90;99.90;;;;;;5001751;28;20036;-85
2021/08/27 05:24:59;;;;;;;16.00;3.47;;;13.90;99.90;;;;;;4998157;28;20079;-86
2021/08/27 05:27:24;;;;;;;18.85;3.03;;;13.90;99.90;;;;;;4999729;28;20468;-87
2021/08/27 05:29:51;;;;;;;13.98;2.97;;;13.90;99.90;;;;;;4986714;28;20048;-85
2021/08/27 05:32:17;;;;;;;12.85;3.10;;;14.00;99.90;;;;;;5024727;28;20064;-86
2021/08/27 05:34:43;;;;;;;10.95;2.90;;;14.00;99.90;;;;;;5020762;28;20041;-84
2021/08/27 05:37:09;;;;;;;14.73;2.72;;;14.00;99.90;;;;;;5008325;28;20033;-87
2021/08/27 05:39:35;;;;;;;15.50;3.05;;;14.10;99.90;;;;;;5020630;28;20389;-86
2021/08/27 05:42:01;;;;;;;18.70;3.55;;;14.10;99.90;;;;;;4992677;28;20048;-85
2021/08/27 05:44:27;;;;;;;16.95;3.22;;;14.10;99.90;;;;;;5006858;28;20037;-86
2021/08/27 05:46:53;;;;;;;14.75;2.80;;;14.10;99.90;;;;;;4969282;28;20561;-85
2021/08/27 05:49:20;;;;;;;12.60;2.80;;;14.10;99.90;;;;;;5005926;28;20048;-85
2021/08/27 05:51:46;;;;;;;15.35;2.72;;;14.20;99.90;;;;;;5018766;28;20415;-85
2021/08/27 05:54:11;;;;;;;14.15;2.90;;;14.20;99.90;;;;;;5002710;28;20042;-86
2021/08/27 05:56:38;;;;;;;15.02;2.83;;;14.20;99.90;;;;;;5001510;28;22883;-84
2021/08/27 05:59:03;;;;;;;17.92;2.80;;;14.20;99.90;;;;;;4987483;28;20092;-85
2021/08/27 06:01:29;;;;;;;17.15;3.70;;;14.20;99.90;;;;;;4974194;28;20155;-85
2021/08/27 06:03:55;;;;;;;11.10;2.60;;;14.20;99.90;;;;;;5008872;28;20430;-85
2021/08/27 06:06:21;;;;;;;18.00;2.88;;;14.20;99.90;;;;;;5019135;28;20048;-85
2021/08/27 06:08:46;;;;;;;13.65;3.13;;;14.20;99.90;;;;;;5006212;28;20582;-84
2021/08/27 06:11:12;;;;;;;11.95;2.80;;;14.20;99.90;;;;;;5022791;28;20042;-87
2021/08/27 06:13:38;;;;;;;14.23;3.28;;;14.30;99.90;;;;;;4997799;28;20083;-88
2021/08/27 06:16:04;;;;;;;16.77;2.92;;;14.30;99.90;;;;;;4998091;28;20676;-86
2021/08/27 06:18:30;;;;;;;17.13;3.63;;;14.30;99.90;;;;;;5005419;28;20034;-87
2021/08/27 06:20:56;;;;;;;16.33;3.38;;;14.30;99.90;;;;;;5010126;28;20425;-87
2021/08/27 06:23:22;;;;;;;13.05;3.10;;;14.30;99.90;;;;;;4992971;28;20045;-86
2021/08/27 06:25:48;;;;;;;17.58;3.53;;;14.40;99.90;;;;;;5026386;28;20156;-86
2021/08/27 06:28:16;;;;;;;19.90;3.78;;;14.40;99.90;;;;;;5011020;28;20041;-86
2021/08/27 06:30:42;;;;;;;17.00;2.95;;;14.30;99.90;;;;;;5016238;28;20139;-86
2021/08/27 06:33:08;;;;;;;14.90;3.08;;;14.40;99.90;;;;;;5027229;28;20042;-84
2021/08/27 06:35:34;;;;;;;15.68;2.97;;;14.40;99.90;;;;;;5011991;28;20045;-87
2021/08/27 06:38:23;;;;;;;11.85;2.67;;;14.40;99.90;;;;;;4990498;28;20037;-86
2021/08/27 06:40:55;;;;;;;16.65;3.22;;;14.40;99.90;;;;;;5001994;28;20164;-86
2021/08/27 06:43:21;;;;;;;;;;;14.40;99.90;;;;;;5022611;28;20300;-86
2021/08/27 06:45:47;;;;;;;10.73;2.35;;;14.40;99.90;;;;;;5012338;28;20334;-84
2021/08/27 06:48:13;;;;;;;21.63;2.90;;;14.40;99.90;;;;;;5006503;28;20037;-84
2021/08/27 06:50:39;;;;;;;15.70;2.60;;;14.40;99.90;;;;;;4991641;28;20038;-86
2021/08/27 06:53:06;;;;;;;16.98;2.88;;;14.40;99.90;;;;;;4972179;28;20128;-86
2021/08/27 06:55:33;;;;;;;13.43;3.10;;;14.40;99.90;;;;;;5026489;28;20041;-86
2021/08/27 06:57:59;;;;;;;16.13;3.22;;;14.40;99.90;;;;;;4987094;28;20526;-84
2021/08/27 07:00:29;;;;;;;15.55;3.03;;;14.40;99.90;;;;;;4953205;28;20037;-85
2021/08/27 07:02:54;;;;;;;13.85;3.20;;;14.40;99.90;;;;;;5008728;28;20038;-86
2021/08/27 07:05:20;;;;;;;17.73;3.30;;;14.50;99.90;;;;;;5022963;28;20041;-87
2021/08/27 07:07:46;;;;;;;19.15;2.65;;;14.50;99.90;;;;;;4988662;28;20045;-86
2021/08/27 07:10:13;;;;;;;12.82;2.80;;;14.60;99.90;;;;;;5022375;28;20124;-86
2021/08/27 07:12:39;;;;;;;16.02;2.67;;;14.60;99.90;;;;;;4999207;28;20045;-85
2021/08/27 07:15:06;;;;;;;17.85;3.08;;;14.70;99.90;;;;;;5008263;28;20273;-87
2021/08/27 07:17:32;;;;;;;13.15;2.80;;;14.80;99.90;;;;;;5005336;28;20112;-89
2021/08/27 07:19:57;;;;;;;14.07;2.85;;;14.90;99.90;;;;;;5003775;28;20059;-86
2021/08/27 07:22:23;;;;;;;15.68;2.78;;;15.00;99.90;;;;;;4989102;28;20073;-86
2021/08/27 07:24:49;;;;;;;15.93;2.67;;;15.10;99.90;;;;;;5001422;28;20041;-86
2021/08/27 07:27:15;;;;;;;17.33;2.40;;;15.10;99.90;;;;;;4990653;28;20045;-86
2021/08/27 07:29:41;;;;;;;12.00;2.40;;;15.20;99.90;;;;;;4986370;28;20731;-84
2021/08/27 07:32:11;;;;;;;9.43;2.30;;;15.20;99.90;;;;;;4990582;28;20042;-86
2021/08/27 07:34:38;;;;;;;11.57;2.80;;;15.20;99.90;;;;;;4993780;28;20138;-86
2021/08/27 07:37:04;;;;;;;18.52;2.97;;;15.20;99.90;;;;;;4979139;28;20042;-87
2021/08/27 07:39:30;;;;;;;15.48;2.53;;;15.20;99.90;;;;;;4992682;28;20033;-87
2021/08/27 07:41:56;;;;;;;21.88;2.83;;;15.20;99.90;;;;;;5014469;28;20034;-87
2021/08/27 07:44:21;;;;;;;14.50;2.05;;;15.20;99.90;;;;;;5001180;28;20052;-88
2021/08/27 07:46:48;;;;;;;11.07;1.92;;;15.20;99.90;;;;;;5015323;28;20041;-89
2021/08/27 07:49:14;;;;;;;12.95;2.70;;;15.30;99.90;;;;;;5006482;28;21852;-88
2021/08/27 07:51:39;;;;;;;17.42;2.55;;;15.30;99.90;;;;;;5011848;28;20042;-87
2021/08/27 07:54:05;;;;;;;12.95;2.28;;;15.40;99.90;;;;;;4986884;28;20072;-86
2021/08/27 07:56:31;;;;;;;13.02;2.20;;;15.50;99.90;;;;;;5002347;28;20551;-90
2021/08/27 07:58:57;;;;;;;12.80;2.75;;;15.50;99.90;;;;;;4973637;28;20048;-88
2021/08/27 08:01:22;;;;;;;17.48;2.40;;;15.60;99.90;;;;;;5004706;28;20045;-87
2021/08/27 08:03:48;;;;;;;14.52;2.22;;;15.70;99.90;;;;;;5010721;28;20034;-86
2021/08/27 08:06:14;;;;;;;18.50;2.67;;;15.70;99.90;;;;;;4985255;28;20125;-87
2021/08/27 08:08:40;;;;;;;10.77;2.10;;;15.80;99.90;;;;;;5014457;28;20053;-88
2021/08/27 08:11:06;;;;;;;15.60;2.45;;;15.70;99.90;;;;;;4991222;28;20127;-88
2021/08/27 08:13:31;;;;;;;19.25;2.58;;;15.80;99.90;;;;;;5009867;28;20037;-88
2021/08/27 08:15:57;;;;;;;11.63;2.13;;;15.80;99.90;;;;;;4993654;28;20759;-89
2021/08/27 08:18:23;;;;;;;17.75;2.20;;;15.80;99.90;;;;;;4994692;28;20142;-90
2021/08/27 08:20:49;;;;;;;8.05;1.80;;;15.90;99.90;;;;;;4986001;28;20034;-88
2021/08/27 08:23:16;;;;;;;15.02;2.47;;;15.90;99.90;;;;;;5019489;28;20072;-87
2021/08/27 08:25:41;;;;;;;12.02;2.17;;;16.00;99.90;;;;;;4986110;28;20037;-88
2021/08/27 08:28:13;;;;;;;11.30;2.55;;;16.10;99.90;;;;;;5005030;28;20087;-87
2021/08/27 08:30:39;;;;;;;14.60;2.30;;;16.10;99.90;;;;;;5016625;28;20038;-88
2021/08/27 08:33:06;;;;;;;14.43;2.22;;;16.30;99.90;;;;;;5013714;28;20142;-87
2021/08/27 08:35:31;;;;;;;18.42;2.05;;;16.40;99.90;;;;;;5019755;28;20342;-86
2021/08/27 08:37:57;;;;;;;16.80;2.78;;;16.40;99.90;;;;;;4999033;28;20047;-87
2021/08/27 08:40:23;;;;;;;12.15;2.58;;;16.30;99.90;;;;;;5021926;28;20033;-87
2021/08/27 08:42:49;;;;;;;17.02;2.50;;;16.30;99.90;;;;;;5003013;28;20115;-88
2021/08/27 08:45:15;;;;;;;14.55;3.15;;;16.30;99.90;;;;;;4983858;28;20042;-88
2021/08/27 08:47:45;;;;;;;17.88;3.28;;;16.20;99.90;;;;;;5023095;28;20041;-87
2021/08/27 08:50:12;;;;;;;12.40;2.70;;;16.10;99.90;;;;;;5031440;28;20045;-87
2021/08/27 08:52:40;;;;;;;12.93;2.58;;;16.10;99.90;;;;;;5028015;28;20041;-87
2021/08/27 08:55:11;;;;;;;11.32;2.50;;;16.10;99.90;;;;;;5005190;28;20041;-90
2021/08/27 08:57:45;;;;;;;17.27;2.67;;;16.10;99.90;;;;;;5016386;28;20053;-86
2021/08/27 09:00:11;;;;;;;10.88;2.47;;;16.10;99.90;;;;;;5003327;28;20041;-85
2021/08/27 09:02:37;;;;;;;9.70;2.67;;;16.20;99.90;;;;;;4976321;28;20561;-86
2021/08/27 09:05:04;;;;;;;16.42;3.20;;;16.20;99.90;;;;;;5010208;28;20045;-86
2021/08/27 09:07:30;;;;;;;14.30;3.05;;;16.20;99.90;;;;;;4971717;28;20950;-86
2021/08/27 09:09:57;;;;;;;11.88;2.92;;;16.30;99.90;;;;;;5008336;28;20038;-86
2021/08/27 09:12:27;;;;;;;9.43;2.58;;;16.40;99.90;;;;;;5007271;28;20036;-87
2021/08/27 09:15:06;;;;;;;10.73;2.63;;;16.50;99.90;;;;;;5002514;28;20129;-86
2021/08/27 09:17:47;;;;;;;13.45;2.85;;;16.60;99.90;;;;;;5005683;28;20377;-86
2021/08/27 09:20:15;;;;;;;13.32;2.90;;;16.70;99.90;;;;;;5001643;28;20100;-85
2021/08/27 09:22:49;;;;;;;14.57;2.60;;;16.80;99.90;;;;;;5008688;28;20045;-85
2021/08/27 09:25:17;;;;;;;16.60;3.40;;;16.90;99.90;;;;;;5006927;28;20053;-86
2021/08/27 09:28:09;;;;;;;18.98;3.75;;;16.90;99.90;;;;;;5011743;28;20044;-84
2021/08/27 09:30:52;;;;;;;19.48;3.47;;;16.80;99.90;;;;;;4988443;28;20666;-86
2021/08/27 09:33:22;;;;;;;16.27;3.03;;;16.70;99.90;;;;;;4975288;28;20573;-86
2021/08/27 09:36:09;;;;;;;15.13;2.80;;;16.60;99.90;;;;;;4970423;28;20393;-87
2021/08/27 09:38:39;;;;;;;12.15;2.65;;;16.50;99.90;;;;;;5002510;28;20041;-88
2021/08/27 09:41:12;;;;;;;13.13;3.10;;;16.40;99.90;;;;;;5005465;28;20087;-84
2021/08/27 09:43:45;;;;;;;13.00;2.97;;;16.40;99.90;;;;;;5001930;28;20053;-79
2021/08/27 09:46:35;;;;;;;13.75;2.83;;;16.50;99.90;;;;;;4985365;28;20047;-82
2021/08/27 09:49:03;;;;;;;15.07;3.10;;;16.50;99.90;;;;;;5003860;28;20069;-82
2021/08/27 09:51:43;;;;;;;11.82;3.05;;;16.60;99.90;;;;;;4986823;28;20049;-86
2021/08/27 09:54:09;;;;;;;15.15;2.60;;;16.80;99.90;;;;;;5021601;28;20304;-85
2021/08/27 09:56:51;;;;;;;8.95;2.80;;;16.90;99.90;;;;;;4974909;28;20390;-85
2021/08/27 09:59:16;;;;;;;9.45;2.30;;;17.10;99.90;;;;;;5007094;28;20099;-86
2021/08/27 10:01:49;;;;;;;10.75;2.45;;;17.20;99.90;;;;;;5008991;28;20515;-85
2021/08/27 10:04:17;;;;;;;16.17;2.55;;;17.30;99.90;;;;;;4989133;28;20106;-84
2021/08/27 10:06:43;;;;;;;13.48;2.90;;;17.40;99.90;;;;;;5010088;28;20041;-86
2021/08/27 10:09:12;;;;;;;14.88;2.40;;;17.40;99.90;;;;;;4995936;28;20190;-88
2021/08/27 10:11:42;;;;;;;13.93;2.40;;;17.40;99.90;;;;;;5027227;28;20049;-87
2021/08/27 10:14:09;;;;;;;10.02;2.67;;;17.30;99.90;;;;;;4994956;28;22533;-89
2021/08/27 10:16:35;;;;;;;10.57;1.88;;;17.10;99.90;;;;;;4976644;28;20041;-84
2021/08/27 10:19:26;;;;;;;10.38;2.45;;;17.10;99.70;;;;;;4988749;28;20507;-87
2021/08/27 10:22:12;;;;;;;14.05;2.80;;;17.10;99.90;;;;;;5009844;28;20045;-86
2021/08/27 10:24:38;;;;;;;15.77;2.40;;;17.20;99.90;;;;;;4997186;28;20037;-86
2021/08/27 10:27:08;;;;;;;15.82;2.13;;;17.20;99.90;;;;;;4996682;28;20037;-87
2021/08/27 10:29:54;;;;;;;8.30;1.60;;;17.20;99.70;;;;;;4992031;28;20502;-89
2021/08/27 10:32:50;;;;;;;8.80;2.08;;;17.30;99.40;;;;;;5007079;28;20041;-86
2021/08/27 10:35:24;;;;;;;7.00;1.90;;;17.40;98.60;;;;;;5011004;28;20049;-84
2021/08/27 10:37:51;;;;;;;8.95;1.90;;;17.50;98.80;;;;;;5002444;28;20060;-86
2021/08/27 10:40:36;;;;;;;9.00;1.80;;;17.60;98.70;;;;;;5002795;28;20045;-86
2021/08/27 10:43:03;;;;;;;16.90;2.28;;;17.60;97.90;;;;;;4991695;28;20092;-87
2021/08/27 10:45:32;;;;;;;10.98;1.83;;;17.60;97.30;;;;;;5004418;28;20041;-88
2021/08/27 10:48:23;;;;;;;11.02;2.47;;;17.50;97.40;;;;;;5007915;28;20117;-85
2021/08/27 10:50:51;;;;;;;14.02;2.33;;;17.30;97.90;;;;;;4990580;28;20056;-86
2021/08/27 10:53:23;;;;;;;7.07;2.25;;;16.80;98.60;;;;;;5001537;28;20158;-85
2021/08/27 10:55:50;;;;;;;14.32;2.00;;;16.20;99.80;;;;;;4974669;28;20060;-84
2021/08/27 10:58:20;;;;;;;9.05;1.90;;;15.70;99.90;;;;;;5011106;28;20042;-81
2021/08/27 11:00:52;;;;;;;5.00;2.00;;;15.40;99.90;;;;;;4999889;28;20403;-85
2021/08/27 11:03:20;;;;;;;13.30;2.13;;;15.20;99.90;;;;;;5020864;28;20340;-86
2021/08/27 11:05:48;;;;;;;7.35;2.10;;;15.10;99.90;;;;;;4984708;28;20367;-84
2021/08/27 11:08:17;;;;;;;9.52;2.25;;;15.00;99.90;;;;;;5003285;28;20124;-84
2021/08/27 11:11:15;;;;;;;17.35;2.08;;;15.00;99.90;;;;;;5019116;28;20077;-86
2021/08/27 11:13:42;;;;;;;13.32;2.17;;;15.10;99.90;;;;;;5002999;28;20052;-83
2021/08/27 11:16:20;;;;;;;12.05;2.00;;;15.10;99.90;;;;;;4982053;28;20033;-84
2021/08/27 11:18:46;;;;;;;25.60;2.25;;;15.20;99.90;;;;;;5016548;28;20498;-85
2021/08/27 11:21:49;;;;;;;34.42;2.45;;;15.30;99.90;;;;;;5003533;28;20065;-86
2021/08/27 11:24:17;;;;;;;8.20;1.80;;;15.40;99.90;;;;;;4964085;28;20093;-86
2021/08/27 11:26:47;;;;;;;19.88;2.65;;;15.50;99.90;;;;;;4983658;28;20045;-83
2021/08/27 11:29:33;;;;;;;11.25;2.38;;;15.60;99.90;;;;;;5020533;28;20397;-86
2021/08/27 11:32:08;;;;;;;10.43;2.35;;;15.70;99.90;;;;;;4999496;28;20216;-87
2021/08/27 11:34:54;;;;;;;29.25;3.42;;;15.80;99.90;;;;;;4973281;28;20733;-83
2021/08/27 11:37:28;;;;;;;10.93;2.10;;;16.00;99.90;;;;;;4987303;28;20052;-86
2021/08/27 11:39:54;;;;;;;8.68;2.15;;;16.10;99.90;;;;;;5001913;28;20041;-88
2021/08/27 11:42:21;;;;;;;17.73;2.72;;;16.20;99.90;;;;;;5005349;28;20189;-87
2021/08/27 11:45:09;;;;;;;8.55;2.25;;;16.30;99.90;;;;;;5006036;28;20037;-89
2021/08/27 11:47:45;;;;;;;8.30;2.28;;;16.50;99.90;;;;;;5007907;28;20041;-86
2021/08/27 11:50:23;;;;;;;12.70;2.63;;;16.60;99.90;;;;;;5027353;28;20041;-86
2021/08/27 11:52:56;;;;;;;11.45;2.17;;;16.50;99.90;;;;;;4986146;28;20662;-85
2021/08/27 11:55:22;;;;;;;16.55;2.88;;;16.60;99.90;;;;;;5022471;28;20070;-87
2021/08/27 11:57:55;;;;;;;22.10;2.88;;;16.70;99.90;;;;;;5021981;28;20904;-85
2021/08/27 12:00:23;;;;;;;14.07;2.55;;;16.80;99.90;;;;;;4996605;28;20041;-85
2021/08/27 12:02:55;;;;;;;9.38;2.47;;;16.90;99.90;;;;;;4988911;28;20396;-89
2021/08/27 12:05:22;;;;;;;;;;;17.10;99.90;;;;;;5002753;28;20072;-87
2021/08/27 12:07:58;;;;;;;13.48;2.63;;;17.10;99.90;;;;;;4991598;28;20052;-87
2021/08/27 12:10:27;;;;;;;18.02;3.00;;;17.20;99.90;;;;;;5006827;28;20038;-87
2021/08/27 12:12:54;;;;;;;9.65;2.65;;;17.20;99.90;;;;;;4989132;28;20049;-89
2021/08/27 12:15:25;;;;;;;10.43;2.92;;;17.20;99.90;;;;;;5015729;28;20052;-91
2021/08/27 12:17:54;;;;;;;15.77;2.40;;;17.20;99.90;;;;;;4999515;28;20116;-90
2021/08/27 12:20:31;;;;;;;11.02;2.33;;;17.30;99.90;;;;;;4994725;28;20132;-89
2021/08/27 12:23:06;;;;;;;9.60;2.03;;;17.30;99.90;;;;;;5029406;28;20045;-90
2021/08/27 12:25:39;;;;;;;10.35;1.92;;;17.30;99.90;;;;;;4996012;28;20033;-88
2021/08/27 12:28:06;;;;;;;7.57;1.90;;;17.30;99.60;;;;;;4979756;28;20034;-88
2021/08/27 12:30:35;;;;;;;6.35;1.83;;;17.40;99.40;;;;;;5012708;28;20056;-89
2021/08/27 12:33:04;;;;;;;11.40;2.08;;;17.50;99.40;;;;;;5011311;28;21879;-87
2021/08/27 12:35:34;;;;;;;12.13;2.40;;;17.50;98.20;;;;;;5008010;28;20046;-87
2021/08/27 12:38:01;;;;;;;10.38;1.90;;;17.40;98.60;;;;;;5003272;28;20117;-88
2021/08/27 12:40:28;;;;;;;22.70;2.50;;;17.20;99.00;;;;;;5031532;28;20041;-88
2021/08/27 12:43:09;;;;;;;21.75;3.20;;;17.10;99.40;;;;;;5017830;28;20045;-88
2021/08/27 12:45:50;;;;;;;25.27;2.65;;;16.90;99.90;;;;;;5041746;28;20029;-90
2021/08/27 12:48:18;;;;;;;28.35;2.78;;;16.80;99.90;;;;;;4998152;28;20239;-89
2021/08/27 12:51:09;;;;;;;15.70;2.33;;;16.80;99.90;;;;;;5021276;28;20045;-88
2021/08/27 12:53:39;;;;;;;12.75;2.60;;;16.80;99.90;;;;;;4984351;28;20076;-87
2021/08/27 12:56:07;;;;;;;12.00;2.30;;;16.90;99.90;;;;;;5035294;28;20609;-90